UAL Bodewes — PCLO — position and weather

sailwx.info

Track history (hours):
 
Tides and Currents Weather Stations Pressure Air Temp Water Temp Dewpoint Dewpoint Depression Visibility Wind Speed Wind Dir Waves Ship Positions

UAL Bodewes

Last reported at 2017-Sep-14 15:35 UTC. Time now 2017-Sep-24 03:36 UTC.
Position N 04°28' W 002°04'.
Warning: this ship's position is 9 days out of date.

Length 119 m; draft 6.6 m.

Type: Cargo ship. MMSI: 246704000.

Date/timePositionNaut miles runAvg speedWind from/ knotsBaromVisibWave heightAir tempDewpointWater temp
2017-Sep-14 15:35N 04°28' W 002°04'211.0
2017-Sep-14 15:25N 04°28' W 002°06'410.7
2017-Sep-14 15:00N 04°27' W 002°10'510.7
2017-Sep-14 14:30N 04°27' W 002°16'510.7
2017-Sep-14 13:59N 04°26' W 002°21'611.3
2017-Sep-14 13:29N 04°25' W 002°27'611.5
2017-Sep-14 12:59N 04°25' W 002°33'511.5
2017-Sep-14 12:30N 04°24' W 002°38'611.5
2017-Sep-14 11:59N 04°23' W 002°44'611.8
2017-Sep-14 11:27N 04°23' W 002°50'611.7
2017-Sep-14 10:59N 04°22' W 002°56'  
2017-Sep-07 22:35N 27°05' W 015°39'212.4
2017-Sep-07 22:25N 27°07' W 015°38'1512.4
2017-Sep-07 21:11N 27°20' W 015°31'512.6
2017-Sep-07 20:50N 27°25' W 015°29'2313.4
2017-Sep-07 19:08N 27°45' W 015°19'214.4
2017-Sep-07 19:00N 27°47' W 015°18'713.5
2017-Sep-07 18:30N 27°54' W 015°16'612.6
2017-Sep-07 18:00N 27°60' W 015°17'612.6
2017-Sep-07 17:30N 28°05' W 015°21'510.2
2017-Sep-07 17:00N 28°09' W 015°24'0 0.2
2017-Sep-07 16:23N 28°09' W 015°24'0 0.0
2017-Sep-07 15:53N 28°09' W 015°24'0 0.0
2017-Sep-07 15:23N 28°09' W 015°24'0 0.0
2017-Sep-07 14:53N 28°09' W 015°24'0 0.0
2017-Sep-07 14:23N 28°09' W 015°24'0 0.0
2017-Sep-07 13:50N 28°09' W 015°24'0 0.0
2017-Sep-07 13:26N 28°09' W 015°24'0 0.0
2017-Sep-07 12:53N 28°09' W 015°24'0 0.0
2017-Sep-07 12:26N 28°09' W 015°24'0 0.0
2017-Sep-07 11:56N 28°09' W 015°24'0 0.0
2017-Sep-07 11:23N 28°09' W 015°24'0 0.0
2017-Sep-07 10:56N 28°09' W 015°24'0 0.0
2017-Sep-07 10:29N 28°09' W 015°24'0 0.4
2017-Sep-07 10:00N 28°09' W 015°24'1 1.2
2017-Sep-07 09:30N 28°09' W 015°23'1 1.5
2017-Sep-07 09:00N 28°09' W 015°23'4 8.1
2017-Sep-07 08:30N 28°13' W 015°21'611.8
2017-Sep-07 08:00N 28°19' W 015°19'611.7
2017-Sep-07 07:30N 28°24' W 015°17'612.0
2017-Sep-07 07:00N 28°30' W 015°16'612.3
2017-Sep-07 06:30N 28°36' W 015°14'612.2
2017-Sep-07 05:59N 28°42' W 015°12'612.3
2017-Sep-07 05:28N 28°48' W 015°10'33412.9
2017-Sep-06 03:40N 34°09' W 013°21'29913.2
2017-Sep-05 05:00N 38°56' W 011°39'1813.8
2017-Sep-05 03:42N 39°14' W 011°32'313.7
2017-Sep-05 03:28N 39°17' W 011°31'1413.7
2017-Sep-05 02:28N 39°30' W 011°26'  
Track history (hours):
 
Tides and Currents Weather Stations Pressure Air Temp Water Temp Dewpoint Dewpoint Depression Visibility Wind Speed Wind Dir Waves Ship Positions

UAL Bodewes

Last reported at 2017-Sep-14 15:35 UTC. Time now 2017-Sep-24 03:36 UTC.
Position N 04°28' W 002°04'.
Warning: this ship's position is 9 days out of date.

Length 119 m; draft 6.6 m.

Type: Cargo ship. MMSI: 246704000.

Date/timePositionNaut miles runAvg speedWind from/ knotsBaromVisibWave heightAir tempDewpointWater temp
2017-Sep-14 15:35N 04°28' W 002°04'211.0
2017-Sep-14 15:25N 04°28' W 002°06'410.7
2017-Sep-14 15:00N 04°27' W 002°10'510.7
2017-Sep-14 14:30N 04°27' W 002°16'510.7
2017-Sep-14 13:59N 04°26' W 002°21'611.3
2017-Sep-14 13:29N 04°25' W 002°27'611.5
2017-Sep-14 12:59N 04°25' W 002°33'511.5
2017-Sep-14 12:30N 04°24' W 002°38'611.5
2017-Sep-14 11:59N 04°23' W 002°44'611.8
2017-Sep-14 11:27N 04°23' W 002°50'611.7
2017-Sep-14 10:59N 04°22' W 002°56'  
2017-Sep-07 22:35N 27°05' W 015°39'212.4
2017-Sep-07 22:25N 27°07' W 015°38'1512.4
2017-Sep-07 21:11N 27°20' W 015°31'512.6
2017-Sep-07 20:50N 27°25' W 015°29'2313.4
2017-Sep-07 19:08N 27°45' W 015°19'214.4
2017-Sep-07 19:00N 27°47' W 015°18'713.5
2017-Sep-07 18:30N 27°54' W 015°16'612.6
2017-Sep-07 18:00N 27°60' W 015°17'612.6
2017-Sep-07 17:30N 28°05' W 015°21'510.2
2017-Sep-07 17:00N 28°09' W 015°24'0 0.2
2017-Sep-07 16:23N 28°09' W 015°24'0 0.0
2017-Sep-07 15:53N 28°09' W 015°24'0 0.0
2017-Sep-07 15:23N 28°09' W 015°24'0 0.0
2017-Sep-07 14:53N 28°09' W 015°24'0 0.0
2017-Sep-07 14:23N 28°09' W 015°24'0 0.0
2017-Sep-07 13:50N 28°09' W 015°24'0 0.0
2017-Sep-07 13:26N 28°09' W 015°24'0 0.0
2017-Sep-07 12:53N 28°09' W 015°24'0 0.0
2017-Sep-07 12:26N 28°09' W 015°24'0 0.0
2017-Sep-07 11:56N 28°09' W 015°24'0 0.0
2017-Sep-07 11:23N 28°09' W 015°24'0 0.0
2017-Sep-07 10:56N 28°09' W 015°24'0 0.0
2017-Sep-07 10:29N 28°09' W 015°24'0 0.4
2017-Sep-07 10:00N 28°09' W 015°24'1 1.2
2017-Sep-07 09:30N 28°09' W 015°23'1 1.5
2017-Sep-07 09:00N 28°09' W 015°23'4 8.1
2017-Sep-07 08:30N 28°13' W 015°21'611.8
2017-Sep-07 08:00N 28°19' W 015°19'611.7
2017-Sep-07 07:30N 28°24' W 015°17'612.0
2017-Sep-07 07:00N 28°30' W 015°16'612.3
2017-Sep-07 06:30N 28°36' W 015°14'612.2
2017-Sep-07 05:59N 28°42' W 015°12'612.3
2017-Sep-07 05:28N 28°48' W 015°10'33412.9
2017-Sep-06 03:40N 34°09' W 013°21'29913.2
2017-Sep-05 05:00N 38°56' W 011°39'1813.8
2017-Sep-05 03:42N 39°14' W 011°32'313.7
2017-Sep-05 03:28N 39°17' W 011°31'1413.7
2017-Sep-05 02:28N 39°30' W 011°26'  

Dump ship's entire track history